createdAt,value
2022-10-25T00:00:01.737Z,60.44
2022-10-25T00:02:39.713Z,60.71
2022-10-25T00:05:07.957Z,60.53
2022-10-25T00:07:35.307Z,60.08
2022-10-25T00:10:02.752Z,57.62
2022-10-25T00:12:30.107Z,60.07
2022-10-25T00:15:01.420Z,59.37
2022-10-25T00:17:31.070Z,61.13
2022-10-25T00:19:58.481Z,60.05
2022-10-25T00:22:25.854Z,61.99
2022-10-25T00:24:53.255Z,61.71
2022-10-25T00:27:20.885Z,60.96
2022-10-25T00:29:48.243Z,61.52
2022-10-25T00:32:15.702Z,62.02
2022-10-25T00:34:43.158Z,62.76
2022-10-25T00:37:10.694Z,62.54
2022-10-25T00:39:38.125Z,60.79
2022-10-25T00:42:05.547Z,62.46
2022-10-25T00:44:39.245Z,61.84
2022-10-25T00:47:18.998Z,59.89
2022-10-25T00:49:59.423Z,62.04
2022-10-25T00:52:32.513Z,63.93
2022-10-25T00:55:01.228Z,63.65
2022-10-25T00:57:41.534Z,64.44
2022-10-25T01:00:09.559Z,63.34
2022-10-25T01:02:37.682Z,65.64
2022-10-25T01:05:05.770Z,63.39
2022-10-25T01:07:33.125Z,61.65
2022-10-25T01:10:00.599Z,62.45
2022-10-25T01:12:28.162Z,61.44
2022-10-25T01:14:55.896Z,60.82
2022-10-25T01:17:54.393Z,60.48
2022-10-25T01:20:51.412Z,60.23
2022-10-25T01:23:53.237Z,63.76
2022-10-25T01:27:01.085Z,60.16
2022-10-25T01:30:04.506Z,58.55
2022-10-25T01:32:53.690Z,60.41
2022-10-25T01:35:28.972Z,59.69
2022-10-25T01:38:25.525Z,61.38
2022-10-25T01:41:19.058Z,61.13
2022-10-25T01:44:18.581Z,61.38
2022-10-25T01:46:53.903Z,61.59
2022-10-25T01:49:35.155Z,60.70
2022-10-25T01:52:03.902Z,62.26
2022-10-25T01:54:31.544Z,59.87
2022-10-25T01:57:13.417Z,61.64
2022-10-25T02:00:10.014Z,64.41
2022-10-25T02:03:26.277Z,65.62
2022-10-25T02:06:13.933Z,59.13
2022-10-25T02:08:51.473Z,59.73
2022-10-25T02:11:30.187Z,59.14
2022-10-25T02:14:33.266Z,61.24
2022-10-25T02:17:06.214Z,60.44
2022-10-25T02:19:37.747Z,60.22
2022-10-25T02:22:09.716Z,61.82
2022-10-25T02:24:39.370Z,60.58
2022-10-25T02:27:08.645Z,60.43
2022-10-25T02:29:37.265Z,60.47
2022-10-25T02:32:05.083Z,61.95
2022-10-25T02:34:33.384Z,64.63
2022-10-25T02:37:01.009Z,64.64
2022-10-25T02:39:31.547Z,66.39
2022-10-25T02:42:02.730Z,66.94
2022-10-25T02:44:30.213Z,67.55
2022-10-25T02:46:58.174Z,68.57
2022-10-25T02:49:25.687Z,69.18
2022-10-25T02:51:53.232Z,68.16
2022-10-25T02:54:20.770Z,68.81
2022-10-25T02:56:52.711Z,68.08
2022-10-25T02:59:21.479Z,68.07
2022-10-25T03:01:49.629Z,67.38
2022-10-25T03:04:17.191Z,64.36
2022-10-25T03:06:44.562Z,65.15
2022-10-25T03:09:12.016Z,65.17
2022-10-25T03:11:39.411Z,65.20
2022-10-25T03:14:06.967Z,65.15
2022-10-25T03:16:34.454Z,64.55
2022-10-25T03:19:01.945Z,65.08
2022-10-25T03:21:29.343Z,63.72
2022-10-25T03:23:56.942Z,64.62
2022-10-25T03:26:24.483Z,63.93
2022-10-25T03:28:51.830Z,63.31
2022-10-25T03:31:20.941Z,63.24
2022-10-25T03:33:48.546Z,63.16
2022-10-25T03:36:16.067Z,63.32
2022-10-25T03:38:43.822Z,63.87
2022-10-25T03:41:11.316Z,63.77
2022-10-25T03:43:38.711Z,63.25
2022-10-25T03:46:06.504Z,64.39
2022-10-25T03:48:34.167Z,64.02
2022-10-25T03:51:01.571Z,61.07
2022-10-25T03:53:28.938Z,60.41
2022-10-25T03:55:56.386Z,60.46
2022-10-25T03:58:23.713Z,61.47
2022-10-25T04:00:51.189Z,61.16
2022-10-25T04:03:18.680Z,61.86
2022-10-25T04:05:46.170Z,61.85
2022-10-25T04:08:13.579Z,60.60
2022-10-25T04:10:40.996Z,61.57
2022-10-25T04:13:08.406Z,60.05
2022-10-25T04:15:37.560Z,59.88
2022-10-25T04:18:05.347Z,58.92
2022-10-25T04:20:32.807Z,59.42
2022-10-25T04:23:00.206Z,58.90
2022-10-25T04:25:29.215Z,58.56
2022-10-25T04:27:59.410Z,59.54
2022-10-25T04:30:26.807Z,58.06
2022-10-25T04:32:54.294Z,59.50
2022-10-25T04:35:21.669Z,59.42
2022-10-25T04:37:49.665Z,60.47
2022-10-25T04:40:20.081Z,59.54
2022-10-25T04:42:50.140Z,58.00
2022-10-25T04:45:17.754Z,57.00
2022-10-25T04:47:45.180Z,56.24
2022-10-25T04:50:12.611Z,55.80
2022-10-25T04:52:40.063Z,55.47
2022-10-25T04:55:07.778Z,55.57
2022-10-25T04:57:35.232Z,55.52
2022-10-25T05:00:02.898Z,55.74
2022-10-25T05:02:30.631Z,55.50
2022-10-25T05:04:58.004Z,55.06
2022-10-25T05:07:25.544Z,55.40
2022-10-25T05:09:52.965Z,54.24
2022-10-25T05:12:20.430Z,52.72
2022-10-25T05:14:47.930Z,50.95
2022-10-25T05:17:15.395Z,54.03
2022-10-25T05:19:42.753Z,53.09
2022-10-25T05:22:10.174Z,52.04
2022-10-25T05:24:37.659Z,48.16
2022-10-25T05:27:05.203Z,46.03
2022-10-25T05:29:32.737Z,44.76
2022-10-25T05:32:00.251Z,43.09
2022-10-25T05:34:27.796Z,42.39
2022-10-25T05:36:55.648Z,41.96
2022-10-25T05:39:23.002Z,40.64
2022-10-25T05:41:50.711Z,40.61
2022-10-25T05:44:18.526Z,40.45
2022-10-25T05:46:46.086Z,40.48
2022-10-25T05:49:13.984Z,40.50
2022-10-25T05:51:41.447Z,40.69
2022-10-25T05:54:14.842Z,40.57
2022-10-25T05:56:43.218Z,41.27
2022-10-25T05:59:12.803Z,40.77
2022-10-25T06:01:42.716Z,38.93
2022-10-25T06:04:10.748Z,38.82
2022-10-25T06:06:39.993Z,39.18
2022-10-25T06:09:08.049Z,38.85
2022-10-25T06:11:35.595Z,39.13
2022-10-25T06:14:03.797Z,39.60
2022-10-25T06:16:31.328Z,39.94
2022-10-25T06:18:58.910Z,39.42
2022-10-25T06:21:28.949Z,40.41
2022-10-25T06:23:58.264Z,50.38
2022-10-25T06:26:28.393Z,45.02
2022-10-25T06:28:59.365Z,44.01
2022-10-25T06:31:27.070Z,42.17
2022-10-25T06:33:54.516Z,42.74
2022-10-25T06:36:23.956Z,41.88
2022-10-25T06:38:51.925Z,41.78
2022-10-25T06:41:25.441Z,40.11
2022-10-25T06:43:52.875Z,41.94
2022-10-25T06:46:26.001Z,39.11
2022-10-25T06:48:55.087Z,39.01
2022-10-25T06:51:23.821Z,38.74
2022-10-25T06:53:59.706Z,37.92
2022-10-25T06:56:28.167Z,36.97
2022-10-25T06:58:55.937Z,35.81
2022-10-25T07:01:25.511Z,34.07
2022-10-25T07:03:56.990Z,33.02
2022-10-25T07:06:29.783Z,31.76
2022-10-25T07:09:01.328Z,32.09
2022-10-25T07:11:31.535Z,30.75
2022-10-25T07:14:00.705Z,31.11
2022-10-25T07:16:29.283Z,31.67
2022-10-25T07:19:01.409Z,32.19
2022-10-25T07:21:30.736Z,32.41
2022-10-25T07:23:58.467Z,32.77
2022-10-25T07:26:28.507Z,33.66
2022-10-25T07:28:58.199Z,32.58
2022-10-25T07:31:29.024Z,31.97
2022-10-25T07:33:59.185Z,31.66
2022-10-25T07:36:26.948Z,31.67
2022-10-25T07:38:55.132Z,31.61
2022-10-25T07:41:22.893Z,31.57
2022-10-25T07:43:50.300Z,30.87
2022-10-25T07:46:18.658Z,30.70
2022-10-25T07:48:46.142Z,30.11
2022-10-25T07:51:15.766Z,30.79
2022-10-25T07:53:43.817Z,31.20
2022-10-25T07:56:18.870Z,31.19
2022-10-25T07:58:49.845Z,31.27
2022-10-25T08:01:23.401Z,32.11
2022-10-25T08:03:52.841Z,31.92
2022-10-25T08:06:23.178Z,31.91
2022-10-25T08:08:50.820Z,32.51
2022-10-25T08:11:18.600Z,33.23
2022-10-25T08:13:50.043Z,33.44
2022-10-25T08:16:17.760Z,34.37
2022-10-25T08:18:45.179Z,33.66
2022-10-25T08:21:12.904Z,34.01
2022-10-25T08:23:40.267Z,34.10
2022-10-25T08:26:07.732Z,34.33
2022-10-25T08:28:35.301Z,34.78
2022-10-25T08:31:04.596Z,35.11
2022-10-25T08:33:33.368Z,35.05
2022-10-25T08:36:04.188Z,35.92
2022-10-25T08:38:31.684Z,35.41
2022-10-25T08:41:22.502Z,36.22
2022-10-25T08:44:22.508Z,36.19
2022-10-25T08:46:57.687Z,35.96
2022-10-25T08:49:58.158Z,36.22
2022-10-25T08:52:38.677Z,35.94
2022-10-25T08:55:15.276Z,36.29
2022-10-25T08:57:48.925Z,36.34
2022-10-25T09:00:19.733Z,35.94
2022-10-25T09:02:54.871Z,36.30
2022-10-25T09:05:48.038Z,37.35
2022-10-25T09:08:50.517Z,37.28
2022-10-25T09:11:49.062Z,36.98
2022-10-25T09:14:35.856Z,38.18
2022-10-25T09:17:15.149Z,38.59
2022-10-25T09:20:00.911Z,38.60
2022-10-25T09:22:44.525Z,38.72
2022-10-25T09:25:29.092Z,38.33
2022-10-25T09:28:03.998Z,38.16
2022-10-25T09:30:37.785Z,37.60
2022-10-25T09:33:09.647Z,37.65
2022-10-25T09:35:45.607Z,37.33
2022-10-25T09:38:20.886Z,38.07
2022-10-25T09:40:58.226Z,37.51
2022-10-25T09:43:32.959Z,37.51
2022-10-25T09:46:06.219Z,37.05
2022-10-25T09:48:48.669Z,37.72
2022-10-25T09:51:38.188Z,37.89
2022-10-25T09:54:17.534Z,37.70
2022-10-25T09:56:44.933Z,37.59
2022-10-25T09:59:16.244Z,37.70
2022-10-25T10:01:43.889Z,37.96
2022-10-25T10:04:36.527Z,38.41
2022-10-25T10:07:36.274Z,38.42
2022-10-25T10:10:09.647Z,38.01
2022-10-25T10:13:06.747Z,38.28
2022-10-25T10:15:48.147Z,38.24
2022-10-25T10:18:33.244Z,37.57
2022-10-25T10:21:16.223Z,37.67
2022-10-25T10:23:43.549Z,36.80
2022-10-25T10:26:31.900Z,37.63
2022-10-25T10:29:07.923Z,37.97
2022-10-25T10:31:42.824Z,38.83
2022-10-25T10:34:23.766Z,38.41
2022-10-25T10:37:13.077Z,38.33
2022-10-25T10:40:00.697Z,38.43
2022-10-25T10:42:35.021Z,38.87
2022-10-25T10:45:08.597Z,39.38
2022-10-25T10:47:50.933Z,38.91
2022-10-25T10:50:22.154Z,38.88
2022-10-25T10:53:00.008Z,39.35
2022-10-25T10:55:36.000Z,38.92
2022-10-25T10:58:06.078Z,39.25
2022-10-25T11:00:34.848Z,38.92
2022-10-25T11:03:02.300Z,39.30
2022-10-25T11:05:35.489Z,39.18
2022-10-25T11:08:08.652Z,40.16
2022-10-25T11:10:37.411Z,39.58
2022-10-25T11:13:23.972Z,39.60
2022-10-25T11:16:31.281Z,40.26
2022-10-25T11:19:14.847Z,40.33
2022-10-25T11:22:09.928Z,40.45
2022-10-25T11:24:54.670Z,41.09
2022-10-25T11:27:24.964Z,40.89
2022-10-25T11:30:27.657Z,41.86
2022-10-25T11:33:26.925Z,41.14
2022-10-25T11:36:23.022Z,41.04
2022-10-25T11:39:23.158Z,41.54
2022-10-25T11:42:43.063Z,42.01
2022-10-25T11:45:22.912Z,41.85
2022-10-25T11:48:20.526Z,42.41
2022-10-25T11:51:16.981Z,42.37
2022-10-25T11:53:56.666Z,42.93
2022-10-25T11:56:36.316Z,43.10
2022-10-25T11:59:28.483Z,43.55
2022-10-25T12:02:19.272Z,43.19
2022-10-25T12:04:58.697Z,43.32
2022-10-25T12:07:40.573Z,43.69
2022-10-25T12:10:36.365Z,44.05
2022-10-25T12:13:16.138Z,43.50
2022-10-25T12:15:47.296Z,42.77
2022-10-25T12:18:29.695Z,43.62
2022-10-25T12:20:58.865Z,43.22
2022-10-25T12:23:28.000Z,43.12
2022-10-25T12:26:01.702Z,43.60
2022-10-25T12:28:50.220Z,44.51
2022-10-25T12:31:25.866Z,44.11
2022-10-25T12:34:04.968Z,44.62
2022-10-25T12:36:38.620Z,45.57
2022-10-25T12:39:32.130Z,44.47
2022-10-25T12:42:05.377Z,48.65
2022-10-25T12:44:52.953Z,48.10
2022-10-25T12:47:57.675Z,46.24
2022-10-25T12:50:43.469Z,45.32
2022-10-25T12:53:49.321Z,46.82
2022-10-25T12:56:53.776Z,46.07
2022-10-25T12:59:30.090Z,46.58
2022-10-25T13:02:35.025Z,46.32
2022-10-25T13:05:30.182Z,46.17
2022-10-25T13:08:01.150Z,45.74
2022-10-25T13:10:34.282Z,46.44
2022-10-25T13:13:05.116Z,45.83
2022-10-25T13:15:57.272Z,46.66
2022-10-25T13:18:40.446Z,45.89
2022-10-25T13:21:16.016Z,46.88
2022-10-25T13:23:43.354Z,45.56
2022-10-25T13:26:17.073Z,45.99
2022-10-25T13:28:46.985Z,45.51
2022-10-25T13:31:36.203Z,46.29
2022-10-25T13:34:12.487Z,46.15
2022-10-25T13:36:54.614Z,46.11
2022-10-25T13:39:32.398Z,45.71
2022-10-25T13:42:15.118Z,45.23
2022-10-25T13:45:03.806Z,44.87
2022-10-25T13:47:51.274Z,44.54
2022-10-25T13:50:27.938Z,44.34
2022-10-25T13:53:19.101Z,44.36
2022-10-25T13:55:56.249Z,43.48
2022-10-25T13:58:31.871Z,44.25
2022-10-25T14:01:18.067Z,44.24
2022-10-25T14:04:01.677Z,44.34
2022-10-25T14:06:43.257Z,44.19
2022-10-25T14:09:33.721Z,44.26
2022-10-25T14:12:07.620Z,43.30
2022-10-25T14:14:48.302Z,44.90
2022-10-25T14:17:35.252Z,44.40
2022-10-25T14:20:26.822Z,43.72
2022-10-25T14:23:06.293Z,44.09
2022-10-25T14:25:38.299Z,43.57
2022-10-25T14:28:22.468Z,43.88
2022-10-25T14:30:53.063Z,43.04
2022-10-25T14:33:33.818Z,43.96
2022-10-25T14:36:06.105Z,43.86
2022-10-25T14:38:50.086Z,43.42
2022-10-25T14:41:22.821Z,44.04
2022-10-25T14:43:50.370Z,42.52
2022-10-25T14:46:20.305Z,43.06
2022-10-25T14:48:49.565Z,42.96
2022-10-25T14:51:28.716Z,42.78
2022-10-25T14:54:17.651Z,42.80
2022-10-25T14:56:44.960Z,42.36
2022-10-25T14:59:30.344Z,43.12
2022-10-25T15:02:07.052Z,42.77
2022-10-25T15:04:42.244Z,41.73
2022-10-25T15:07:23.382Z,42.68
2022-10-25T15:09:56.997Z,42.41
2022-10-25T15:12:26.281Z,41.90
2022-10-25T15:14:55.159Z,41.54
2022-10-25T15:17:27.653Z,41.65
2022-10-25T15:20:07.368Z,41.95
2022-10-25T15:22:47.685Z,42.11
2022-10-25T15:25:24.360Z,42.00
2022-10-25T15:27:57.153Z,41.70
2022-10-25T15:30:43.431Z,42.08
2022-10-25T15:33:27.273Z,42.36
2022-10-25T15:35:57.811Z,41.44
2022-10-25T15:38:54.355Z,42.16
2022-10-25T15:41:19.159Z,41.29
2022-10-25T15:43:46.535Z,41.79
2022-10-25T15:46:26.209Z,42.78
2022-10-25T15:48:53.864Z,41.66
2022-10-25T15:51:21.528Z,42.60
2022-10-25T15:53:49.195Z,41.80
2022-10-25T15:56:19.716Z,42.06
2022-10-25T15:58:48.024Z,41.86
2022-10-25T16:01:15.526Z,42.18
2022-10-25T16:03:43.136Z,41.96
2022-10-25T16:06:13.961Z,42.24
2022-10-25T16:08:42.290Z,42.73
2022-10-25T16:11:16.906Z,42.82
2022-10-25T16:13:45.881Z,42.34
2022-10-25T16:16:38.930Z,42.78
2022-10-25T16:19:10.161Z,42.46
2022-10-25T16:21:37.619Z,42.34
2022-10-25T16:24:05.018Z,42.00
2022-10-25T16:26:44.027Z,43.50
2022-10-25T16:29:24.941Z,44.01
2022-10-25T16:31:54.056Z,43.54
2022-10-25T16:37:58.321Z,43.24
2022-10-25T16:40:25.726Z,42.75
2022-10-25T16:42:53.343Z,42.68
2022-10-25T16:45:31.448Z,43.46
2022-10-25T16:47:59.745Z,42.42
2022-10-25T16:50:30.140Z,42.30
2022-10-25T16:53:03.208Z,43.03
2022-10-25T16:55:31.351Z,42.68
2022-10-25T16:57:59.871Z,42.77
2022-10-25T17:00:29.108Z,42.94
2022-10-25T17:02:56.505Z,42.06
2022-10-25T17:05:29.079Z,42.80
2022-10-25T17:07:56.583Z,41.93
2022-10-25T17:10:24.089Z,42.15
2022-10-25T17:12:54.483Z,42.24
2022-10-25T17:15:22.180Z,42.45
2022-10-25T17:17:49.751Z,42.72
2022-10-25T17:20:18.016Z,42.76
2022-10-25T17:22:45.906Z,42.41
2022-10-25T17:25:13.341Z,42.62
2022-10-25T17:27:45.619Z,42.53
2022-10-25T17:30:16.621Z,42.37
2022-10-25T17:32:45.169Z,42.56
2022-10-25T17:35:13.094Z,42.48
2022-10-25T17:37:44.509Z,42.76
2022-10-25T17:40:16.109Z,42.61
2022-10-25T17:42:43.537Z,42.85
2022-10-25T17:45:11.301Z,42.50
2022-10-25T17:47:42.735Z,42.64
2022-10-25T17:50:13.031Z,43.67
2022-10-25T17:52:42.472Z,42.87
2022-10-25T17:55:11.520Z,43.17
2022-10-25T17:57:39.790Z,43.15
2022-10-25T18:00:08.044Z,43.28
2022-10-25T18:02:44.288Z,43.50
2022-10-25T18:05:20.325Z,43.16
2022-10-25T18:07:48.943Z,43.36
2022-10-25T18:10:16.968Z,43.75
2022-10-25T18:12:45.518Z,43.39
2022-10-25T18:15:13.059Z,43.76
2022-10-25T18:17:41.116Z,43.97
2022-10-25T18:20:09.032Z,43.94
2022-10-25T18:22:36.450Z,43.50
2022-10-25T18:25:03.946Z,43.73
2022-10-25T18:27:31.585Z,43.47
2022-10-25T18:29:58.959Z,43.48
2022-10-25T18:32:33.589Z,44.21
2022-10-25T18:35:04.040Z,44.08
2022-10-25T18:37:31.364Z,44.66
2022-10-25T18:39:58.808Z,44.27
2022-10-25T18:42:27.387Z,44.52
2022-10-25T18:44:55.611Z,44.92
2022-10-25T18:47:23.041Z,44.50
2022-10-25T18:49:50.355Z,45.12
2022-10-25T18:52:17.849Z,44.87
2022-10-25T18:54:45.217Z,45.01
2022-10-25T18:57:13.813Z,45.21
2022-10-25T18:59:41.902Z,45.46
2022-10-25T19:02:11.241Z,45.58
2022-10-25T19:04:38.679Z,45.54
2022-10-25T19:07:06.408Z,45.50
2022-10-25T19:09:33.846Z,45.31
2022-10-25T19:12:01.176Z,45.50
2022-10-25T19:14:28.572Z,45.74
2022-10-25T19:16:55.935Z,46.03
2022-10-25T19:19:23.416Z,46.20
2022-10-25T19:21:50.798Z,46.43
2022-10-25T19:24:18.271Z,46.00
2022-10-25T19:26:45.609Z,46.21
2022-10-25T19:29:13.032Z,46.09
2022-10-25T19:31:40.490Z,46.28
2022-10-25T19:34:07.863Z,46.40
2022-10-25T19:36:35.382Z,46.47
2022-10-25T19:39:04.012Z,46.94
2022-10-25T19:41:31.432Z,46.82
2022-10-25T19:43:58.877Z,46.92
2022-10-25T19:46:26.506Z,47.24
2022-10-25T19:48:56.409Z,47.75
2022-10-25T19:51:24.005Z,47.52
2022-10-25T19:53:51.474Z,47.58
2022-10-25T19:56:21.985Z,48.04
2022-10-25T19:58:50.128Z,47.93
2022-10-25T20:01:21.173Z,48.76
2022-10-25T20:03:51.095Z,48.27
2022-10-25T20:06:24.956Z,47.95
2022-10-25T20:08:53.897Z,48.01
2022-10-25T20:11:22.539Z,48.02
2022-10-25T20:13:54.654Z,48.82
2022-10-25T20:16:23.170Z,48.20
2022-10-25T20:18:50.747Z,48.21
2022-10-25T20:21:21.998Z,48.53
2022-10-25T20:23:54.829Z,49.38
2022-10-25T20:26:25.549Z,48.42
2022-10-25T20:28:54.822Z,48.34
2022-10-25T20:31:24.533Z,48.56
2022-10-25T20:33:52.890Z,48.45
2022-10-25T20:36:20.656Z,48.71
2022-10-25T20:38:48.330Z,48.78
2022-10-25T20:41:18.744Z,48.98
2022-10-25T20:43:51.445Z,49.27
2022-10-25T20:46:19.985Z,49.01
2022-10-25T20:48:47.358Z,48.96
2022-10-25T20:51:15.917Z,49.23
2022-10-25T20:53:44.635Z,49.57
2022-10-25T20:56:16.705Z,49.42
2022-10-25T20:58:44.702Z,49.03
2022-10-25T21:01:12.247Z,49.50
2022-10-25T21:03:40.189Z,49.23
2022-10-25T21:06:10.761Z,49.62
2022-10-25T21:08:38.581Z,49.57
2022-10-25T21:11:09.513Z,50.20
2022-10-25T21:13:37.736Z,50.02
2022-10-25T21:16:16.206Z,50.98
2022-10-25T21:18:44.127Z,50.38
2022-10-25T21:21:18.183Z,51.86
2022-10-25T21:23:47.088Z,50.60
2022-10-25T21:26:14.796Z,50.50
2022-10-25T21:28:44.180Z,50.38
2022-10-25T21:31:14.213Z,51.17
2022-10-25T21:33:49.908Z,50.84
2022-10-25T21:36:19.880Z,51.29
2022-10-25T21:38:47.357Z,50.85
2022-10-25T21:41:21.048Z,51.65
2022-10-25T21:43:50.042Z,51.18
2022-10-25T21:46:18.881Z,51.02
2022-10-25T21:48:53.129Z,50.92
2022-10-25T21:51:22.735Z,51.39
2022-10-25T21:53:50.435Z,50.42
2022-10-25T21:56:20.128Z,51.33
2022-10-25T21:58:50.130Z,51.13
2022-10-25T22:01:20.316Z,52.25
2022-10-25T22:03:48.001Z,51.36
2022-10-25T22:06:18.408Z,51.71
2022-10-25T22:08:46.417Z,51.68
2022-10-25T22:11:25.785Z,53.15
2022-10-25T22:13:58.708Z,53.08
2022-10-25T22:16:26.701Z,51.64
2022-10-25T22:19:07.213Z,53.25
2022-10-25T22:21:37.593Z,52.36
2022-10-25T22:24:06.923Z,52.44
2022-10-25T22:26:35.702Z,52.26
2022-10-25T22:29:03.318Z,52.11
2022-10-25T22:31:31.140Z,52.25
2022-10-25T22:34:03.432Z,52.59
2022-10-25T22:36:39.129Z,53.18
2022-10-25T22:39:07.855Z,51.79
2022-10-25T22:41:35.711Z,51.89
2022-10-25T22:44:03.524Z,51.74
2022-10-25T22:46:33.920Z,51.97
2022-10-25T22:49:06.131Z,52.26
2022-10-25T22:51:33.850Z,51.45
2022-10-25T22:54:01.272Z,50.91
2022-10-25T22:56:31.014Z,51.46
2022-10-25T22:59:01.996Z,51.66
2022-10-25T23:01:35.445Z,51.64
2022-10-25T23:04:04.866Z,50.33
2022-10-25T23:06:34.717Z,50.56
2022-10-25T23:09:07.242Z,50.52
2022-10-25T23:11:36.786Z,50.24
2022-10-25T23:14:05.369Z,50.24
2022-10-25T23:16:32.770Z,50.42
2022-10-25T23:19:00.274Z,50.18
2022-10-25T23:21:30.433Z,50.01
2022-10-25T23:23:59.421Z,50.13
2022-10-25T23:26:32.451Z,50.24
2022-10-25T23:29:00.709Z,49.17
2022-10-25T23:31:29.104Z,48.82
2022-10-25T23:33:58.552Z,49.48
2022-10-25T23:36:28.816Z,49.59
2022-10-25T23:38:57.009Z,49.74
2022-10-25T23:41:24.741Z,48.83
2022-10-25T23:43:52.128Z,48.67
2022-10-25T23:46:19.796Z,49.00
2022-10-25T23:48:47.246Z,48.51
2022-10-25T23:51:16.954Z,48.39
2022-10-25T23:53:45.818Z,48.17
2022-10-25T23:56:14.195Z,48.39
2022-10-25T23:58:42.022Z,47.67
